Terminal Aerodrome Forecast
Issued by NWS

Home | Current Version | Previous Version | Text Only | Print | Product List | Glossary On
Versions: 1 2 3 4 5 6 7 8 9 10 11 12 13 14 15 16 17 18 19 20 21 22 23
529
FTUS43 KDTX 271733
TAFMBS
TAF
KMBS 271733Z 2718/2818 27011KT P6SM OVC012
     FM280000 35006KT P6SM BKN025 OVC120
     FM280500 02008KT P6SM OVC006
     FM281500 02011KT P6SM OVC012=

USA.gov is the U.S. government's official web portal to all federal, state and local government web resources and services.